Time;durP1;ratioP1;P1;durP2;ratioP2;P2;SDS_P1;SDS_P2;PMS_P1;PMS_P2;Temp;Humidity;BMP_temperature;BMP_pressure;BME280_temperature;BME280_humidity;BME280_pressure;Samples;Min_cycle;Max_cycle;Signal;HPM_P1;HPM_P2
2022/11/20 00:00:28;;;;;;;3.47;3.10;;;;;;;-0.11;100.00;101073.72;5012907;28;20197;-44
2022/11/20 00:02:54;;;;;;;3.47;3.17;;;;;;;-0.07;100.00;101080.75;4983919;28;20208;-44
2022/11/20 00:05:20;;;;;;;4.68;3.88;;;;;;;-0.13;100.00;101075.47;5011672;28;20669;-45
2022/11/20 00:07:46;;;;;;;4.15;3.63;;;;;;;-0.03;100.00;101079.06;5012912;28;20576;-44
2022/11/20 00:10:12;;;;;;;5.32;4.72;;;;;;;-0.01;100.00;101082.59;5007397;28;20169;-45
2022/11/20 00:12:38;;;;;;;6.50;5.78;;;;;;;-0.10;100.00;101085.16;5012974;28;20639;-45
2022/11/20 00:15:04;;;;;;;5.55;5.05;;;;;;;-0.10;100.00;101087.78;4995515;28;20263;-44
2022/11/20 00:17:29;;;;;;;5.72;4.90;;;;;;;-0.05;100.00;101075.53;5012180;28;20212;-45
2022/11/20 00:19:55;;;;;;;5.25;4.75;;;;;;;-0.13;100.00;101070.19;5013058;28;20184;-41
2022/11/20 00:22:20;;;;;;;7.03;5.60;;;;;;;-0.16;100.00;101079.81;5013750;28;20505;-45
2022/11/20 00:24:46;;;;;;;6.78;6.18;;;;;;;-0.25;100.00;101072.72;5013085;28;20271;-47
2022/11/20 00:27:11;;;;;;;6.70;6.00;;;;;;;-0.20;100.00;101076.25;5009176;28;20266;-44
2022/11/20 00:29:37;;;;;;;7.75;6.45;;;;;;;-0.23;100.00;101077.13;5012408;28;20216;-45
2022/11/20 00:32:02;;;;;;;9.15;6.00;;;;;;;-0.22;100.00;101070.09;5012422;28;20196;-45
2022/11/20 00:34:28;;;;;;;6.50;5.90;;;;;;;-0.26;100.00;101076.22;5011939;28;20169;-44
2022/11/20 00:36:53;;;;;;;9.23;6.22;;;;;;;-0.31;100.00;101068.25;5012251;28;20204;-44
2022/11/20 00:39:19;;;;;;;6.88;6.15;;;;;;;-0.31;100.00;101062.09;5012568;28;20177;-44
2022/11/20 00:41:44;;;;;;;6.18;5.60;;;;;;;-0.25;100.00;101067.44;5013118;28;20183;-45
2022/11/20 00:44:10;;;;;;;6.53;5.88;;;;;;;-0.21;100.00;101074.50;5013075;28;20216;-45
2022/11/20 00:46:36;;;;;;;6.50;5.90;;;;;;;-0.29;100.00;101070.91;5012926;28;20211;-44
2022/11/20 00:49:01;;;;;;;6.75;5.40;;;;;;;-0.26;100.00;101061.31;5013041;28;20189;-44
2022/11/20 00:51:27;;;;;;;8.38;5.78;;;;;;;-0.23;100.00;101066.59;5012822;28;20533;-48
2022/11/20 00:53:56;;;;;;;7.85;6.13;;;;;;;-0.34;100.00;101072.63;5012536;28;20244;-44
2022/11/20 00:56:21;;;;;;;6.32;5.65;;;;;;;-0.26;100.00;101070.97;4993392;28;20231;-46
2022/11/20 00:58:48;;;;;;;8.10;6.20;;;;;;;-0.27;100.00;101070.03;5011726;28;20657;-44
2022/11/20 01:01:15;;;;;;;6.57;5.57;;;;;;;-0.16;100.00;101058.75;4994721;28;20160;-44
2022/11/20 01:03:43;;;;;;;6.18;5.57;;;;;;;-0.16;100.00;101054.34;5012662;28;20200;-45
2022/11/20 01:06:13;;;;;;;8.63;6.82;;;;;;;-0.14;100.00;101064.91;5012615;28;20224;-44
2022/11/20 01:08:39;;;;;;;6.88;5.95;;;;;;;-0.13;100.00;101056.13;5012591;28;20189;-44
2022/11/20 01:11:11;;;;;;;8.05;6.95;;;;;;;-0.21;100.00;101063.97;5012729;28;20183;-44
2022/11/20 01:13:37;;;;;;;8.18;6.70;;;;;;;-0.15;100.00;101053.50;5012273;28;20672;-45
2022/11/20 01:16:11;;;;;;;9.13;6.57;;;;;;;-0.17;100.00;101049.97;5011759;28;20184;-44
2022/11/20 01:18:39;;;;;;;6.18;5.53;;;;;;;-0.15;100.00;101056.13;5011578;28;20176;-44
2022/11/20 01:21:07;;;;;;;5.22;4.72;;;;;;;-0.11;100.00;101047.41;5008312;28;20185;-44
2022/11/20 01:23:34;;;;;;;5.43;4.93;;;;;;;-0.13;100.00;101048.22;5012261;28;20649;-43
2022/11/20 01:26:02;;;;;;;5.40;4.90;;;;;;;-0.23;100.00;101053.41;5012166;28;20268;-41
2022/11/20 01:28:29;;;;;;;6.22;5.45;;;;;;;-0.15;100.00;101058.78;5011877;28;20188;-45
2022/11/20 01:30:54;;;;;;;5.88;4.90;;;;;;;-0.05;100.00;101054.44;5012423;28;20176;-44
2022/11/20 01:33:20;;;;;;;5.78;5.15;;;;;;;-0.06;100.00;101042.16;5012292;28;20207;-43
2022/11/20 01:35:45;;;;;;;5.35;4.85;;;;;;;-0.04;100.00;101046.56;5012072;28;20264;-43
2022/11/20 01:38:11;;;;;;;6.65;4.97;;;;;;;0.02;100.00;101032.56;5011403;28;20189;-44
2022/11/20 01:40:36;;;;;;;6.15;5.20;;;;;;;0.02;100.00;101037.81;5011505;28;20184;-45
2022/11/20 01:43:23;;;;;;;7.22;5.00;;;;;;;-0.05;100.00;101023.72;5011477;28;20533;-43
2022/11/20 01:46:05;;;;;;;7.53;5.25;;;;;;;0.07;100.00;101022.97;5011852;28;20192;-43
2022/11/20 01:48:44;;;;;;;6.38;4.75;;;;;;;0.06;100.00;101017.66;5011856;28;20191;-44
2022/11/20 01:51:25;;;;;;;6.43;5.05;;;;;;;0.13;100.00;101020.38;5011598;28;20169;-45
2022/11/20 01:53:55;;;;;;;8.30;5.10;;;;;;;0.14;100.00;101006.31;5002089;28;20388;-41
2022/11/20 01:56:21;;;;;;;4.95;4.38;;;;;;;0.16;100.00;101012.47;4991156;28;20205;-44
2022/11/20 01:58:52;;;;;;;4.70;3.90;;;;;;;0.14;100.00;101008.94;5008312;28;20188;-43
2022/11/20 02:01:18;;;;;;;3.90;3.25;;;;;;;0.11;100.00;101001.03;5010663;28;20221;-45
2022/11/20 02:03:44;;;;;;;5.63;3.78;;;;;;;0.21;100.00;101004.59;5011028;28;20693;-48
2022/11/20 02:06:25;;;;;;;4.30;3.25;;;;;;;0.07;100.00;101004.53;5011000;28;20307;-44
2022/11/20 02:08:52;;;;;;;4.70;2.58;;;;;;;0.08;100.00;101006.25;5010844;28;20550;-44
2022/11/20 02:11:17;;;;;;;3.22;2.45;;;;;;;0.01;100.00;101017.63;5011174;28;20648;-42
2022/11/20 02:13:43;;;;;;;1.60;1.50;;;;;;;0.03;100.00;101007.13;5010925;28;20185;-41
2022/11/20 02:16:18;;;;;;;2.15;1.27;;;;;;;0.01;100.00;101016.75;4993419;28;20202;-43
2022/11/20 02:18:45;;;;;;;0.85;0.85;;;;;;;-0.02;100.00;101010.59;5011007;28;20184;-42
2022/11/20 02:21:46;;;;;;;2.88;0.95;;;;;;;-0.08;100.00;101005.28;5010639;28;20180;-44
2022/11/20 02:24:17;;;;;;;0.40;0.40;;;;;;;-0.16;100.00;101009.59;5011142;28;20302;-44
2022/11/20 02:26:49;;;;;;;1.42;0.60;;;;;;;-0.23;100.00;101007.78;5010939;28;20223;-47
2022/11/20 02:29:25;;;;;;;0.65;0.50;;;;;;;-0.23;100.00;101013.91;5011270;28;20172;-44
2022/11/20 02:31:52;;;;;;;2.13;0.57;;;;;;;-0.33;100.00;101006.84;5010868;28;20195;-47
2022/11/20 02:34:17;;;;;;;0.30;0.30;;;;;;;-0.39;100.00;101009.41;5011062;28;20695;-43
2022/11/20 02:36:44;;;;;;;1.92;0.55;;;;;;;-0.43;100.00;101010.22;5011094;28;20276;-43
2022/11/20 02:39:12;;;;;;;0.50;0.50;;;;;;;-0.44;100.00;101009.38;5010912;28;20688;-41
2022/11/20 02:41:39;;;;;;;0.30;0.30;;;;;;;-0.44;100.00;101006.72;5010675;28;20543;-42
2022/11/20 02:44:05;;;;;;;0.63;0.30;;;;;;;-0.37;100.00;101001.50;5010689;28;20200;-42
2022/11/20 02:46:32;;;;;;;0.35;0.28;;;;;;;-0.29;100.00;101002.44;5011056;28;20661;-43
2022/11/20 02:48:58;;;;;;;0.55;0.40;;;;;;;-0.36;100.00;101005.91;5008631;28;20189;-42
2022/11/20 02:51:23;;;;;;;0.57;0.32;;;;;;;-0.35;100.00;101002.41;5011691;28;20620;-42
2022/11/20 02:53:49;;;;;;;1.75;0.38;;;;;;;-0.39;100.00;101012.03;4991478;28;20903;-40
2022/11/20 02:56:15;;;;;;;1.65;0.47;;;;;;;-0.35;100.00;101010.28;5005418;28;20588;-42
2022/11/20 02:58:41;;;;;;;0.32;0.32;;;;;;;-0.29;100.00;101000.69;5010516;28;20215;-43
2022/11/20 03:01:06;;;;;;;2.95;0.35;;;;;;;-0.26;100.00;101008.63;4992951;28;20212;-43
2022/11/20 03:03:32;;;;;;;2.33;0.50;;;;;;;-0.25;100.00;100996.34;5010258;28;20187;-41
2022/11/20 03:06:00;;;;;;;2.35;0.45;;;;;;;-0.22;100.00;101004.25;5010040;28;20259;-43
2022/11/20 03:08:26;;;;;;;1.65;0.35;;;;;;;-0.24;100.00;101006.00;5009073;28;20193;-43
2022/11/20 03:10:51;;;;;;;1.25;0.30;;;;;;;-0.23;100.00;101007.78;5003308;28;20174;-43
2022/11/20 03:13:17;;;;;;;4.03;0.43;;;;;;;-0.31;100.00;101005.06;4990380;28;20177;-44
2022/11/20 03:15:43;;;;;;;1.75;0.35;;;;;;;-0.39;100.00;101005.84;4974006;28;20170;-44
2022/11/20 03:18:08;;;;;;;0.38;0.38;;;;;;;-0.40;100.00;101006.75;5010417;28;20736;-45
2022/11/20 03:20:34;;;;;;;0.63;0.30;;;;;;;-0.33;100.00;101008.56;4996320;28;20283;-42
2022/11/20 03:23:00;;;;;;;1.65;0.30;;;;;;;-0.33;100.00;101003.28;5013501;28;20211;-42
2022/11/20 03:25:25;;;;;;;0.65;0.30;;;;;;;-0.31;100.00;101005.06;4995268;28;20208;-41
2022/11/20 03:27:52;;;;;;;1.50;0.30;;;;;;;-0.45;100.00;101002.31;5013169;28;20212;-44
2022/11/20 03:30:17;;;;;;;0.20;0.20;;;;;;;-0.45;100.00;101001.44;5012542;28;20665;-46
2022/11/20 03:32:43;;;;;;;1.65;0.55;;;;;;;-0.50;100.00;101005.78;5012322;28;20274;-48
2022/11/20 03:35:09;;;;;;;2.10;0.30;;;;;;;-0.49;100.00;100995.25;5012217;28;20846;-48
2022/11/20 03:37:34;;;;;;;1.75;0.30;;;;;;;-0.46;100.00;101003.19;5011922;28;20213;-47
2022/11/20 03:40:00;;;;;;;1.13;0.30;;;;;;;-0.48;100.00;100997.03;5011636;28;20595;-48
2022/11/20 03:42:58;;;;;;;2.40;0.35;;;;;;;-0.49;100.00;100994.38;4994480;28;20188;-45
2022/11/20 03:45:18;;;;;;;0.98;0.35;;;;;;;-0.42;100.00;100994.47;5010139;28;20225;-47
2022/11/20 03:47:44;;;;;;;0.25;0.20;;;;;;;-0.43;100.00;100989.19;5011993;28;20234;-46
2022/11/20 03:50:12;;;;;;;0.30;0.30;;;;;;;-0.42;100.00;100989.19;5012573;28;20230;-48
2022/11/20 03:52:38;;;;;;;0.52;0.38;;;;;;;-0.43;100.00;100989.19;5012245;28;20185;-47
2022/11/20 03:55:05;;;;;;;0.75;0.30;;;;;;;-0.39;100.00;100976.91;5008217;28;20188;-48
2022/11/20 03:57:30;;;;;;;2.55;0.47;;;;;;;-0.40;100.00;100976.03;5011903;28;20224;-47
2022/11/20 03:59:56;;;;;;;0.30;0.30;;;;;;;-0.35;100.00;100973.44;5008983;28;20235;-49
2022/11/20 04:02:21;;;;;;;0.30;0.30;;;;;;;-0.29;100.00;100977.00;5012249;28;20235;-47
2022/11/20 04:04:47;;;;;;;0.43;0.43;;;;;;;-0.35;100.00;100971.72;5011978;28;20257;-49
2022/11/20 04:07:12;;;;;;;0.95;0.25;;;;;;;-0.30;100.00;100966.47;5011285;28;20200;-47
2022/11/20 04:09:38;;;;;;;0.38;0.38;;;;;;;-0.27;100.00;100974.41;5009788;28;20188;-48
2022/11/20 04:12:04;;;;;;;0.35;0.35;;;;;;;-0.23;100.00;100973.56;5011286;28;20685;-47
2022/11/20 04:14:29;;;;;;;0.40;0.35;;;;;;;-0.35;100.00;100976.97;5011426;28;20255;-48
2022/11/20 04:16:55;;;;;;;0.30;0.30;;;;;;;-0.25;100.00;100977.91;5010266;28;20216;-47
2022/11/20 04:19:20;;;;;;;1.02;0.50;;;;;;;-0.28;100.00;100970.88;5011807;28;20188;-48
2022/11/20 04:21:46;;;;;;;0.50;0.50;;;;;;;-0.32;100.00;100976.13;5011568;28;20185;-46
2022/11/20 04:24:11;;;;;;;0.47;0.47;;;;;;;-0.29;100.00;100977.00;5007930;28;20300;-48
2022/11/20 04:26:38;;;;;;;0.43;0.43;;;;;;;-0.30;100.00;100975.25;5009686;28;20283;-49
2022/11/20 04:29:03;;;;;;;1.50;0.80;;;;;;;-0.29;100.00;100965.59;5011562;28;20172;-48
2022/11/20 04:31:32;;;;;;;1.38;0.70;;;;;;;-0.28;100.00;100975.28;4993748;28;20735;-46
2022/11/20 04:34:02;;;;;;;1.77;0.63;;;;;;;-0.28;100.00;100962.13;5011001;28;20217;-45
2022/11/20 04:36:29;;;;;;;0.70;0.60;;;;;;;-0.22;100.00;100972.66;5010288;28;20288;-46
2022/11/20 04:38:56;;;;;;;0.68;0.60;;;;;;;-0.21;100.00;100977.09;5011518;28;20623;-45
2022/11/20 04:41:25;;;;;;;0.65;0.65;;;;;;;-0.18;100.00;100981.47;5011214;28;20172;-48
2022/11/20 04:43:52;;;;;;;0.60;0.60;;;;;;;-0.18;100.00;100974.47;5010873;28;20238;-46
2022/11/20 04:46:19;;;;;;;0.57;0.50;;;;;;;-0.16;100.00;100971.84;5010656;28;20648;-45
2022/11/20 04:48:45;;;;;;;0.65;0.50;;;;;;;-0.27;100.00;100975.25;5010236;28;20266;-46
2022/11/20 04:51:11;;;;;;;0.82;0.82;;;;;;;-0.34;100.00;100975.22;5007739;28;20173;-45
2022/11/20 04:53:36;;;;;;;1.27;0.88;;;;;;;-0.27;100.00;100970.00;5010735;28;20223;-47
2022/11/20 04:56:04;;;;;;;0.90;0.90;;;;;;;-0.27;100.00;100961.22;5010417;28;20185;-45
2022/11/20 04:58:30;;;;;;;0.75;0.70;;;;;;;-0.27;100.00;100966.50;5010278;28;20271;-46
2022/11/20 05:01:03;;;;;;;0.82;0.82;;;;;;;-0.31;100.00;100957.69;5010699;28;20184;-47
2022/11/20 05:03:28;;;;;;;0.82;0.82;;;;;;;-0.22;100.00;100963.03;5008959;28;20208;-45
2022/11/20 05:05:54;;;;;;;1.52;1.20;;;;;;;-0.22;100.00;100970.03;5010258;28;20215;-45
2022/11/20 05:08:20;;;;;;;0.90;0.90;;;;;;;-0.27;100.00;100962.09;5011107;28;20188;-46
2022/11/20 05:10:45;;;;;;;0.70;0.70;;;;;;;-0.18;100.00;100957.78;5010946;28;20203;-46
2022/11/20 05:13:10;;;;;;;1.48;0.93;;;;;;;-0.18;100.00;100955.16;5010142;28;20177;-46
2022/11/20 05:15:36;;;;;;;1.20;0.90;;;;;;;-0.24;100.00;100940.19;5010447;28;20185;-45
2022/11/20 05:18:01;;;;;;;1.08;1.08;;;;;;;-0.25;100.00;100954.22;5010407;28;20192;-46
2022/11/20 05:20:27;;;;;;;2.53;1.30;;;;;;;-0.32;100.00;100949.78;4990255;28;20192;-45
2022/11/20 05:22:56;;;;;;;3.65;1.00;;;;;;;-0.29;100.00;100948.03;5010579;28;20273;-47
2022/11/20 05:25:22;;;;;;;0.70;0.70;;;;;;;-0.28;100.00;100948.94;5009552;28;20699;-47
2022/11/20 05:27:47;;;;;;;2.03;0.77;;;;;;;-0.21;100.00;100948.13;5009948;28;20189;-46
2022/11/20 05:30:13;;;;;;;1.15;0.82;;;;;;;-0.25;100.00;100934.03;5010456;28;20200;-46
2022/11/20 05:32:38;;;;;;;1.77;1.20;;;;;;;-0.33;100.00;100933.13;5009006;28;20283;-47
2022/11/20 05:35:04;;;;;;;0.93;0.93;;;;;;;-0.25;100.00;100928.78;5009706;28;20181;-45
2022/11/20 05:37:30;;;;;;;1.25;0.98;;;;;;;-0.29;100.00;100936.63;5009309;28;20196;-45
2022/11/20 05:39:55;;;;;;;1.05;1.05;;;;;;;-0.36;100.00;100942.72;5009587;28;20181;-45
2022/11/20 05:42:30;;;;;;;1.23;1.08;;;;;;;-0.23;100.00;100936.69;5008881;28;20188;-49
2022/11/20 05:44:56;;;;;;;1.20;1.10;;;;;;;-0.37;100.00;100926.06;5009134;28;20191;-47
2022/11/20 05:47:22;;;;;;;0.80;0.80;;;;;;;-0.29;100.00;100926.09;5009546;28;20551;-47
2022/11/20 05:49:47;;;;;;;0.85;0.85;;;;;;;-0.19;100.00;100927.94;5009629;28;20184;-49
2022/11/20 05:52:13;;;;;;;1.40;1.00;;;;;;;-0.26;100.00;100927.03;5005991;28;20267;-45
2022/11/20 05:54:38;;;;;;;1.25;1.02;;;;;;;-0.22;100.00;100927.91;5009744;28;20173;-47
2022/11/20 05:57:04;;;;;;;1.08;1.08;;;;;;;-0.20;100.00;100918.28;5009526;28;20315;-47
2022/11/20 05:59:30;;;;;;;1.17;1.17;;;;;;;-0.25;100.00;100923.50;5009216;28;20188;-46
2022/11/20 06:01:55;;;;;;;1.75;1.17;;;;;;;-0.16;100.00;100920.06;5009180;28;20203;-47
2022/11/20 06:04:21;;;;;;;1.33;1.30;;;;;;;-0.21;100.00;100916.53;5008165;28;20197;-46
2022/11/20 06:06:46;;;;;;;1.80;1.60;;;;;;;-0.29;100.00;100919.09;5008714;28;20207;-46
2022/11/20 06:09:12;;;;;;;1.50;1.40;;;;;;;-0.20;100.00;100913.00;5008659;28;20223;-48
2022/11/20 06:11:37;;;;;;;1.23;1.23;;;;;;;-0.23;100.00;100911.22;5010004;28;20271;-46
2022/11/20 06:14:03;;;;;;;1.70;1.60;;;;;;;-0.26;100.00;100913.00;5009467;28;20652;-46
2022/11/20 06:16:28;;;;;;;1.70;1.60;;;;;;;-0.25;100.00;100910.34;5008783;28;20193;-46
2022/11/20 06:18:54;;;;;;;2.60;2.40;;;;;;;-0.33;100.00;100898.00;5008258;28;20216;-47
2022/11/20 06:21:21;;;;;;;3.65;3.35;;;;;;;-0.29;100.00;100905.91;5007179;28;20184;-45
2022/11/20 06:23:47;;;;;;;4.40;4.00;;;;;;;-0.31;100.00;100897.13;5009343;28;20176;-45
2022/11/20 06:26:16;;;;;;;4.88;4.45;;;;;;;-0.30;100.00;100909.44;5008802;28;20211;-46
2022/11/20 06:28:42;;;;;;;3.85;3.47;;;;;;;-0.36;100.00;100905.88;5009574;28;20216;-47
2022/11/20 06:31:10;;;;;;;4.20;3.78;;;;;;;-0.31;100.00;100904.16;5009183;28;20176;-46
2022/11/20 06:33:36;;;;;;;3.83;3.53;;;;;;;-0.25;100.00;100905.06;5007173;28;20196;-47
2022/11/20 06:36:03;;;;;;;3.88;3.55;;;;;;;-0.24;100.00;100908.59;5008998;28;20185;-47
2022/11/20 06:38:29;;;;;;;3.95;3.65;;;;;;;-0.27;100.00;100909.44;5009009;28;20180;-46
2022/11/20 06:40:55;;;;;;;4.25;3.17;;;;;;;-0.23;100.00;100907.72;5009515;28;20179;-47
2022/11/20 06:43:22;;;;;;;3.88;3.38;;;;;;;-0.29;100.00;100897.16;5009194;28;20660;-46
2022/11/20 06:45:54;;;;;;;6.07;4.35;;;;;;;-0.35;100.00;100905.00;5008791;28;20216;-47
2022/11/20 06:48:21;;;;;;;5.28;4.47;;;;;;;-0.30;100.00;100909.44;5009058;28;20192;-47
2022/11/20 06:50:46;;;;;;;2.75;2.55;;;;;;;-0.19;100.00;100904.25;5009343;28;20183;-48
2022/11/20 06:53:12;;;;;;;3.50;2.08;;;;;;;-0.07;100.00;100906.06;5007636;28;20181;-50
2022/11/20 06:55:42;;;;;;;2.47;2.28;;;;;;;-0.11;100.00;100905.19;5011569;28;20189;-47
2022/11/20 06:58:07;;;;;;;1.98;1.88;;;;;;;0.07;100.00;100900.91;5011092;28;20200;-47
2022/11/20 07:00:33;;;;;;;2.90;1.58;;;;;;;0.06;100.00;100886.84;5010437;28;20203;-46
2022/11/20 07:03:03;;;;;;;2.40;1.60;;;;;;;0.09;100.00;100910.59;5012997;28;20183;-46
2022/11/20 07:05:29;;;;;;;1.88;1.30;;;;;;;0.17;100.00;100907.97;5012821;28;20288;-47
2022/11/20 07:07:56;;;;;;;1.35;1.27;;;;;;;0.23;100.00;100902.75;5012718;28;20756;-47
2022/11/20 07:10:21;;;;;;;2.72;1.20;;;;;;;0.25;100.00;100906.28;5010795;28;20199;-46
2022/11/20 07:12:51;;;;;;;3.45;1.35;;;;;;;0.27;100.00;100904.53;5012239;28;20188;-48
2022/11/20 07:15:17;;;;;;;2.15;1.42;;;;;;;0.26;100.00;100907.13;5011941;28;20208;-47
2022/11/20 07:17:43;;;;;;;1.25;1.15;;;;;;;0.15;100.00;100917.63;5004924;28;20219;-48
2022/11/20 07:20:09;;;;;;;1.00;0.90;;;;;;;0.11;100.00;100898.31;5012401;28;20189;-46
2022/11/20 07:22:34;;;;;;;1.60;1.25;;;;;;;0.06;100.00;100899.13;5010041;28;20177;-48
2022/11/20 07:25:01;;;;;;;1.45;1.10;;;;;;;0.01;100.00;100895.59;5011384;28;20211;-47
2022/11/20 07:27:27;;;;;;;1.05;1.05;;;;;;;0.05;100.00;100897.38;5012171;28;20259;-47
2022/11/20 07:29:52;;;;;;;1.13;1.10;;;;;;;-0.04;100.00;100904.34;5012319;28;20196;-49
2022/11/20 07:32:18;;;;;;;1.10;0.80;;;;;;;-0.04;100.00;100903.47;5011947;28;20199;-47
2022/11/20 07:34:43;;;;;;;2.13;0.82;;;;;;;-0.14;100.00;100897.25;5012221;28;20644;-50
2022/11/20 07:37:09;;;;;;;1.77;0.70;;;;;;;-0.21;100.00;100896.34;4993467;28;20227;-48
2022/11/20 07:39:34;;;;;;;0.85;0.85;;;;;;;-0.31;100.00;100901.53;5012221;28;20229;-46
2022/11/20 07:42:00;;;;;;;0.80;0.80;;;;;;;-0.36;100.00;100911.16;5012209;28;20245;-47
2022/11/20 07:44:26;;;;;;;0.90;0.90;;;;;;;-0.41;100.00;100908.47;5011839;28;20204;-47
2022/11/20 07:46:51;;;;;;;0.82;0.82;;;;;;;-0.44;100.00;100898.81;5011639;28;20223;-48
2022/11/20 07:49:17;;;;;;;2.15;0.90;;;;;;;-0.40;100.00;100894.44;5011922;28;20270;-46
2022/11/20 07:51:42;;;;;;;0.73;0.63;;;;;;;-0.40;100.00;100899.69;5011697;28;20192;-48
2022/11/20 07:54:07;;;;;;;0.70;0.70;;;;;;;-0.42;100.00;100893.53;5012148;28;20204;-47
2022/11/20 07:56:33;;;;;;;0.63;0.60;;;;;;;-0.45;100.00;100886.50;5010960;28;20192;-47
2022/11/20 07:58:58;;;;;;;0.95;0.95;;;;;;;-0.29;100.00;100902.41;5012104;28;20192;-50
2022/11/20 08:01:25;;;;;;;1.27;1.17;;;;;;;-0.29;100.00;100900.66;5010221;28;20209;-47
2022/11/20 08:03:51;;;;;;;1.88;1.38;;;;;;;-0.30;100.00;100895.41;5011684;28;20251;-46
2022/11/20 08:06:18;;;;;;;1.30;1.20;;;;;;;-0.25;100.00;100891.03;5011464;28;20216;-48
2022/11/20 08:08:44;;;;;;;2.35;1.52;;;;;;;-0.26;100.00;100899.81;5009813;28;20184;-46
2022/11/20 08:14:11;;;;;;;2.20;2.08;;;;;;;-0.27;100.00;100893.66;5011334;28;20575;-47
2022/11/20 08:16:37;;;;;;;2.03;1.92;;;;;;;-0.25;100.00;100899.81;5009867;28;20299;-47
2022/11/20 08:19:03;;;;;;;1.48;1.38;;;;;;;-0.08;100.00;100897.31;5011783;28;20184;-49
2022/11/20 08:21:30;;;;;;;1.27;1.15;;;;;;;0.05;100.00;100897.38;5011323;28;20184;-48
2022/11/20 08:23:57;;;;;;;1.27;1.17;;;;;;;0.18;100.00;100909.75;5011632;28;20204;-49
2022/11/20 08:26:23;;;;;;;1.38;1.27;;;;;;;0.57;100.00;100902.91;5011268;28;20212;-47
2022/11/20 08:28:52;;;;;;;1.30;1.20;;;;;;;0.75;100.00;100916.16;5011206;28;20187;-46
2022/11/20 08:31:18;;;;;;;1.50;1.40;;;;;;;1.17;100.00;100909.19;5011748;28;20283;-48
2022/11/20 08:33:43;;;;;;;1.35;1.33;;;;;;;1.21;100.00;100910.97;5011062;28;20276;-47
2022/11/20 08:36:09;;;;;;;2.20;1.90;;;;;;;1.32;100.00;100907.47;4993533;28;20274;-46
2022/11/20 08:38:34;;;;;;;3.22;1.77;;;;;;;1.26;100.00;100905.69;5011419;28;20180;-45
2022/11/20 08:43:46;;;;;;;5.18;4.18;;;;;;;0.93;100.00;100901.25;5011307;28;20180;-49
2022/11/20 08:46:12;;;;;;;4.53;3.80;;;;;;;1.06;100.00;100903.03;5010883;28;20227;-49
2022/11/20 08:48:38;;;;;;;5.65;3.08;;;;;;;1.04;100.00;100902.16;5010937;28;20281;-49
2022/11/20 08:51:03;;;;;;;2.22;2.03;;;;;;;0.83;100.00;100905.59;5010983;28;20199;-47
2022/11/20 08:53:29;;;;;;;1.98;1.60;;;;;;;0.70;100.00;100902.06;5010760;28;20169;-49
2022/11/20 08:55:56;;;;;;;1.30;1.20;;;;;;;0.49;100.00;100916.03;5010741;28;20181;-49
2022/11/20 08:58:22;;;;;;;2.00;1.77;;;;;;;0.60;100.00;100905.53;5010678;28;20203;-48
2022/11/20 09:00:47;;;;;;;2.65;1.60;;;;;;;0.39;100.00;100903.69;5007284;28;20177;-47
2022/11/20 09:03:13;;;;;;;1.33;1.30;;;;;;;0.39;100.00;100893.16;5010404;28;20185;-49
2022/11/20 09:05:39;;;;;;;1.58;1.48;;;;;;;0.44;100.00;100909.88;5010092;28;20291;-50
2022/11/20 09:08:04;;;;;;;1.95;1.20;;;;;;;0.56;100.00;100902.00;5010729;28;20709;-46
2022/11/20 09:10:30;;;;;;;1.85;1.50;;;;;;;0.50;100.00;100896.69;5009685;28;20171;-48
2022/11/20 09:12:56;;;;;;;4.40;3.40;;;;;;;0.58;100.00;100907.28;5010627;28;20598;-49
2022/11/20 09:15:22;;;;;;;3.13;2.85;;;;;;;0.79;100.00;100898.59;5009242;28;20176;-47
2022/11/20 09:17:58;;;;;;;2.60;2.42;;;;;;;0.73;100.00;100903.84;5009498;28;20208;-49
2022/11/20 09:20:24;;;;;;;2.92;2.30;;;;;;;0.90;100.00;100901.25;5010476;28;20193;-48
2022/11/20 09:22:50;;;;;;;4.00;2.83;;;;;;;0.94;100.00;100896.00;5010380;28;20252;-49
2022/11/20 09:25:16;;;;;;;4.22;2.58;;;;;;;0.96;100.00;100893.34;5010171;28;20200;-49
2022/11/20 09:27:43;;;;;;;2.30;2.10;;;;;;;0.97;100.00;100900.38;5010557;28;20707;-48
2022/11/20 09:30:10;;;;;;;4.68;2.72;;;;;;;0.98;100.00;100904.78;4991693;28;20187;-43
2022/11/20 09:32:35;;;;;;;3.22;2.40;;;;;;;1.05;100.00;100897.75;5011103;28;20280;-43
2022/11/20 09:35:01;;;;;;;2.83;2.10;;;;;;;1.03;100.00;100897.75;5011522;28;20177;-45
2022/11/20 09:37:27;;;;;;;2.83;2.53;;;;;;;0.98;100.00;100902.13;5011057;28;20208;-44
2022/11/20 09:39:53;;;;;;;2.70;2.00;;;;;;;0.98;100.00;100907.41;5011003;28;20165;-43
2022/11/20 09:42:40;;;;;;;3.22;2.33;;;;;;;1.07;100.00;100910.06;5009385;28;20260;-42
2022/11/20 09:45:27;;;;;;;2.70;2.50;;;;;;;1.15;100.00;100905.69;5010575;28;20200;-45
2022/11/20 09:48:05;;;;;;;4.93;2.63;;;;;;;1.27;100.00;100901.28;4993173;28;20213;-44
2022/11/20 09:50:43;;;;;;;3.90;2.50;;;;;;;1.09;100.00;100896.88;5010232;28;20595;-45
2022/11/20 09:53:46;;;;;;;3.95;3.65;;;;;;;1.22;100.00;100904.84;4992526;28;20215;-45
2022/11/20 09:56:12;;;;;;;4.50;3.83;;;;;;;1.07;100.00;100903.91;5010030;28;20181;-49
2022/11/20 09:58:38;;;;;;;5.72;3.85;;;;;;;0.80;100.00;100905.59;5011155;28;20184;-45
2022/11/20 10:01:12;;;;;;;3.97;2.70;;;;;;;0.80;100.00;100905.59;5010814;28;20279;-46
2022/11/20 10:03:43;;;;;;;5.55;3.08;;;;;;;0.74;100.00;100901.19;5011028;28;20165;-43
2022/11/20 10:06:15;;;;;;;2.45;2.25;;;;;;;0.61;100.00;100892.38;5011007;28;20157;-45
2022/11/20 10:09:13;;;;;;;3.25;2.45;;;;;;;0.66;100.00;100907.34;5010853;28;20224;-45
2022/11/20 10:11:48;;;;;;;2.20;2.00;;;;;;;0.91;100.00;100897.72;4960555;28;20231;-46
2022/11/20 10:14:49;;;;;;;2.45;2.20;;;;;;;0.88;100.00;100890.69;5009987;28;20172;-45
2022/11/20 10:17:23;;;;;;;2.80;2.13;;;;;;;0.96;100.00;100886.31;4987447;28;20203;-44
2022/11/20 10:20:15;;;;;;;4.07;2.28;;;;;;;0.94;100.00;100885.44;5007273;28;20527;-45
2022/11/20 10:23:05;;;;;;;3.58;1.88;;;;;;;1.03;100.00;100888.09;5011032;28;20176;-46
2022/11/20 10:25:42;;;;;;;2.30;2.10;;;;;;;1.03;100.00;100876.66;5010722;28;20185;-46
2022/11/20 10:28:17;;;;;;;2.22;2.03;;;;;;;1.00;100.00;100885.41;5010587;28;20212;-44
2022/11/20 10:30:45;;;;;;;2.35;1.55;;;;;;;1.02;100.00;100880.16;5010813;28;20149;-43
2022/11/20 10:33:19;;;;;;;2.65;1.98;;;;;;;0.97;100.00;100887.19;4992661;28;20185;-48
2022/11/20 10:35:52;;;;;;;2.50;1.83;;;;;;;1.00;100.00;100876.63;5010812;28;20471;-45
2022/11/20 10:38:26;;;;;;;2.25;1.75;;;;;;;1.05;100.00;100874.00;5010896;28;20203;-45
2022/11/20 10:41:24;;;;;;;3.10;1.75;;;;;;;1.10;100.00;100872.28;5010702;28;20301;-46
2022/11/20 10:43:46;;;;;;;3.60;1.80;;;;;;;1.11;100.00;100869.59;5009133;28;20196;-44
2022/11/20 10:46:19;;;;;;;2.45;1.52;;;;;;;1.15;100.00;100859.94;5008870;28;20196;-47
2022/11/20 10:48:46;;;;;;;1.63;1.48;;;;;;;1.15;100.00;100858.19;5009894;28;20556;-44
2022/11/20 10:51:35;;;;;;;1.63;1.52;;;;;;;1.14;100.00;100867.00;5008720;28;20622;-46
2022/11/20 10:54:12;;;;;;;1.90;1.67;;;;;;;1.16;100.00;100869.59;5009576;28;20173;-46
2022/11/20 10:56:50;;;;;;;6.70;1.90;;;;;;;1.18;100.00;100857.28;4990544;28;20680;-44
2022/11/20 10:59:37;;;;;;;3.67;1.80;;;;;;;1.18;100.00;100850.28;5008987;28;20279;-48
2022/11/20 11:02:19;;;;;;;1.60;1.50;;;;;;;1.17;100.00;100856.44;5009970;28;20684;-44
2022/11/20 11:04:54;;;;;;;2.38;1.55;;;;;;;1.19;100.00;100856.44;5009119;28;20303;-44
2022/11/20 11:07:27;;;;;;;2.35;1.42;;;;;;;1.19;100.00;100853.81;5009904;28;20227;-44
2022/11/20 11:09:56;;;;;;;1.70;1.60;;;;;;;1.15;100.00;100837.06;5010276;28;20164;-44
2022/11/20 11:12:25;;;;;;;1.88;1.77;;;;;;;1.24;100.00;100847.63;5010178;28;20172;-44
2022/11/20 11:14:53;;;;;;;2.33;1.77;;;;;;;1.36;100.00;100852.03;5009776;28;20181;-46
2022/11/20 11:17:26;;;;;;;2.72;1.88;;;;;;;1.34;100.00;100843.25;5010010;28;20469;-44
2022/11/20 11:20:04;;;;;;;2.03;1.83;;;;;;;1.40;100.00;100848.53;4991999;28;20181;-45
2022/11/20 11:22:33;;;;;;;2.20;1.63;;;;;;;1.48;100.00;100848.50;5010126;28;20173;-43
2022/11/20 11:24:59;;;;;;;4.40;1.85;;;;;;;1.39;100.00;100849.38;5009839;28;20236;-48
2022/11/20 11:27:25;;;;;;;2.83;1.70;;;;;;;1.38;100.00;100849.41;5009555;28;20194;-47
2022/11/20 11:30:02;;;;;;;1.90;1.80;;;;;;;1.31;100.00;100845.00;5010180;28;20161;-42